Terminal Aerodrome Forecast
Issued by NWS

Home | Current Version | Previous Version | Text Only | Print | Product List | Glossary On
Versions: 1 2 3 4 5 6 7 8 9 10 11 12
000
FTUS46 KLOX 271100
TAFLGB
TAF
KLGB 271120Z 2712/2812 VRB03KT P6SM SKC
     FM271900 19007KT P6SM SKC
     FM272300 29010KT P6SM SKC
     FM280400 VRB03KT P6SM SKC
     FM281100 VRB03KT 4SM BR BKN007=

USA.gov is the U.S. government's official web portal to all federal, state and local government web resources and services.